Página principal
METAR-TAF:

METAR-TAF

Aeroportos :

Aeroporto Internacional de Chongqing Jiangbei

Chongqing, China

latitude: 29-31N, longitude: 106-29E, altura: 351 m

Observação actual do tempo

O boletim foi feito há 57 minutos, às 19:00 UTC
Vento 4 kt de norte
Temperatura 13°C
Humidade 88%
Pressão 1019 hPa
Visibilidade 10 km ou mais
Nuvens dispersasa uma altura de 3000 ft

METAR: ZUCK 141900Z 36002MPS 9999 SCT030 13/11 Q1019 NOSIG

Hora: 03:57 (19:57 UTC)

Previsão

O boletim foi feito há 4 horas e 55 minutos, às 15:02 UTC
Previsão válida de 14 às 18 UTC a 15 às 18 UTC
Vento 6 kt de norte
Visibilidade: 3500 m
Nuvens dispersasa uma altura de 2000 ft
Encobertoa uma altura de 5000 ft
neblina

TAF: ZUCK 141502Z 1418/1518 01003MPS 3500 BR SCT020 OVC050 TX14/1508Z TN11/1422Z

Observações e previsões do tempo de mais de 4000 aeroportos (mensagens METAR e TAF).

As estações disponíveis são os pontos amarelos e vermelhos sobre o mapa.

Mova o rato sobre o mapa para ver o nome da estação.

Depois clique no ponto para visualizar as observações e previsões meteorológicas.

Para alterar o mapa : clique nos botões verdes com uma cruz preta para aumentar o zoom; no botão verde com uma pitada de zoom; ou nas setas verdes para mapas adjacentes.


METAR-TAF: